Explorer Of The Seas — C6SE4 — position and weather

sailwx.info

Track history (hours):
 
Tides and Currents Weather Stations Pressure Air Temp Water Temp Dewpoint Dewpoint Depression Visibility Wind Speed Wind Dir Waves Ship Positions

Explorer Of The Seas

Operator: Royal Caribbean Cruises Ltd

Last reported at 2019-Sep-21 11:30 UTC. Time now 2019-Sep-21 11:36 UTC.
Position N 50°54' W 001°25'.

Length 311 m; draft 9.1 m.

Type: Passenger vessel. MMSI: 311316000.

Date/timePositionNaut miles runAvg speedWind from/ knotsBaromVisibWave heightAir tempDewpointWater temp
2019-Sep-21 11:30N 50°54' W 001°25'0 0.0
2019-Sep-21 10:51N 50°54' W 001°25'0 0.0
2019-Sep-21 10:27N 50°54' W 001°25'0 0.0
2019-Sep-21 10:00N 50°54' W 001°25'0 0.0
2019-Sep-21 09:06N 50°54' W 001°25'0 0.0
2019-Sep-21 08:57N 50°54' W 001°25'0 0.0
2019-Sep-21 08:24N 50°54' W 001°25'0 0.0
2019-Sep-21 07:57N 50°54' W 001°25'0 0.0
2019-Sep-21 07:30N 50°54' W 001°25'0 0.0
2019-Sep-21 06:57N 50°54' W 001°25'0 0.0
2019-Sep-21 06:30N 50°54' W 001°25'0 0.0
2019-Sep-21 06:00N 50°54' W 001°25'0 0.0
2019-Sep-21 05:24N 50°54' W 001°25'0 0.0
2019-Sep-21 05:00N 50°54' W 001°25'0 0.0
2019-Sep-21 04:30N 50°54' W 001°25'1 1.2
2019-Sep-21 04:00N 50°53' W 001°25'4 8.1
2019-Sep-21 03:31N 50°51' W 001°20'4 8.1
2019-Sep-21 03:01N 50°47' W 001°19'815.3
2019-Sep-21 02:31N 50°45' W 001°07'816.6
2019-Sep-21 02:00N 50°40' W 000°56'814.3
2019-Sep-21 01:27N 50°36' W 000°46'818.0
2019-Sep-21 01:00N 50°35' W 000°33'918.1
2019-Sep-21 00:30N 50°34' W 000°19'918.0
2019-Sep-21 00:00N 50°32' W 000°05'917.8
2019-Sep-20 23:30N 50°32' E 000°09'918.2
2019-Sep-20 23:00N 50°33' E 000°23'2418.5
2019-Sep-20 21:44N 50°47' E 000°53'2620.6
2019-Sep-20 20:30N 51°03' E 001°24'1020.9
2019-Sep-20 20:00N 51°09' E 001°37'1020.3
2019-Sep-20 19:30N 51°17' E 001°47'1019.8
2019-Sep-20 19:00N 51°26' E 001°55'1019.4
2019-Sep-20 18:30N 51°32' E 002°07'1118.8
2019-Sep-20 17:55N 51°41' E 002°19'1716.2
2019-Sep-20 16:50N 51°54' E 002°38'716.3
2019-Sep-20 16:26N 52°00' E 002°38'818.0
2019-Sep-20 15:58N 52°09' E 002°38'818.3
2019-Sep-20 15:30N 52°17' E 002°38'714.2
2019-Sep-20 15:00N 52°24' E 002°36'3264.5 100 / 181026.610.8 15.015.018.0
2019-Sep-20 14:59N 52°27' E 002°39'919.1
2019-Sep-20 14:30N 52°36' E 002°39'1019.1
2019-Sep-20 13:59N 52°46' E 002°38'1119.2
2019-Sep-20 13:24N 52°57' E 002°38'919.0
2019-Sep-20 12:57N 53°05' E 002°38'1018.8
2019-Sep-20 12:26N 53°14' E 002°44'918.7
2019-Sep-20 11:57N 53°23' E 002°49'14118.0
2019-Sep-20 04:08N 55°39' E 003°50'518.3
2019-Sep-20 03:52N 55°44' E 003°52'718.3
2019-Sep-20 03:29N 55°51' E 003°55'918.5
2019-Sep-20 03:00N 55°60' E 003°59'918.7
2019-Sep-20 02:30N 56°09' E 004°03'918.8
2019-Sep-20 02:00N 56°18' E 004°07'918.9
2019-Sep-20 01:30N 56°27' E 004°12'1018.8
2019-Sep-20 00:57N 56°37' E 004°17'1018.8
2019-Sep-20 00:26N 56°46' E 004°21'817.8
2019-Sep-20 00:00N 56°54' E 004°24'131.7 290 / 251028.0 5.4 12.3 13.1
2019-Sep-19 23:57N 56°55' E 004°25'818.7
2019-Sep-19 23:30N 57°03' E 004°29'918.6
2019-Sep-19 23:00N 57°12' E 004°34'918.5
2019-Sep-19 22:30N 57°21' E 004°38'918.6
2019-Sep-19 22:00N 57°30' E 004°43'918.7
2019-Sep-19 21:30N 57°39' E 004°47'918.6
2019-Sep-19 21:00N 57°48' E 004°52'918.9
2019-Sep-19 20:30N 57°57' E 004°56'918.8
2019-Sep-19 20:00N 58°06' E 005°01'046.6
2019-Sep-19 20:00N 58°06' E 005°00'1020.3 280 / 251026.6 2.2 11.2 13.6
2019-Sep-19 19:30N 58°15' E 005°05'918.7
2019-Sep-19 19:00N 58°24' E 005°10'918.6
2019-Sep-19 18:30N 58°34' E 005°14'1019.7
2019-Sep-19 18:00N 58°43' E 005°18'918.8
2019-Sep-19 17:30N 58°51' E 005°28'5 9.8
2019-Sep-19 17:00N 58°55' E 005°33'815.1
2019-Sep-19 16:30N 59°03' E 005°33'611.3
2019-Sep-19 16:00N 58°60' E 005°42'1 2.7
2019-Sep-19 15:29N 58°58' E 005°44'0 0.0
2019-Sep-19 14:59N 58°58' E 005°44'0 0.0
2019-Sep-19 14:29N 58°58' E 005°44'0 0.0
2019-Sep-19 13:59N 58°58' E 005°44'0 0.0
2019-Sep-19 13:29N 58°58' E 005°44'0 0.0
2019-Sep-19 12:59N 58°58' E 005°44'0 0.0
2019-Sep-19 12:29N 58°58' E 005°44'0 0.0
2019-Sep-19 11:59N 58°58' E 005°44'0 0.0
2019-Sep-19 11:26N 58°58' E 005°44'0 0.0
2019-Sep-19 10:59N 58°58' E 005°44'0 0.0
2019-Sep-19 10:29N 58°58' E 005°44'0 0.0
2019-Sep-19 09:59N 58°58' E 005°44'0 0.0
2019-Sep-19 09:29N 58°58' E 005°44'0 0.0
2019-Sep-19 08:59N 58°58' E 005°44'0 0.0
2019-Sep-19 08:29N 58°58' E 005°44'0 0.0
2019-Sep-19 07:59N 58°58' E 005°44'0 0.0
2019-Sep-19 07:29N 58°58' E 005°44'0 0.0
2019-Sep-19 06:59N 58°58' E 005°44'0 0.0
2019-Sep-19 06:29N 58°58' E 005°44'0 0.3
2019-Sep-19 06:00N 58°59' E 005°44'1 2.8
2019-Sep-19 05:30N 58°60' E 005°42'612.4
2019-Sep-19 05:00N 59°04' E 005°33'5 9.1
2019-Sep-19 04:30N 59°06' E 005°25'510.9
2019-Sep-19 04:00N 59°03' E 005°16'815.4
2019-Sep-19 03:30N 59°04' E 005°01'917.7
2019-Sep-19 03:00N 59°10' E 004°48'917.3
2019-Sep-19 02:30N 59°16' E 004°35'816.9
2019-Sep-19 02:00N 59°22' E 004°23'916.9
2019-Sep-19 01:30N 59°30' E 004°19'917.1
2019-Sep-19 01:00N 59°38' E 004°16'816.9
2019-Sep-19 00:30N 59°47' E 004°14'816.5
2019-Sep-19 00:00N 59°55' E 004°10'816.7
2019-Sep-18 23:29N 60°03' E 004°06'816.3
2019-Sep-18 23:00N 60°11' E 004°03'816.4
2019-Sep-18 22:30N 60°19' E 004°02'816.4
2019-Sep-18 22:00N 60°27' E 004°01'816.0
2019-Sep-18 21:30N 60°35' E 004°01'816.3
2019-Sep-18 21:00N 60°41' E 004°13'815.4
2019-Sep-18 20:30N 60°44' E 004°27'714.9
2019-Sep-18 20:00N 60°44' E 004°42'612.0
2019-Sep-18 19:30N 60°40' E 004°51'816.6
2019-Sep-18 19:00N 60°33' E 004°56'816.4
2019-Sep-18 18:30N 60°25' E 005°03'611.0
2019-Sep-18 18:00N 60°24' E 005°14'2 3.7
2019-Sep-18 17:27N 60°23' E 005°18'0 0.0
2019-Sep-18 16:57N 60°23' E 005°18'0 0.0
2019-Sep-18 16:30N 60°23' E 005°18'0 0.0
2019-Sep-18 16:00N 60°23' E 005°18'0 0.0
2019-Sep-18 15:30N 60°23' E 005°18'0 0.0
2019-Sep-18 15:00N 60°23' E 005°18'0 0.0
2019-Sep-18 14:30N 60°23' E 005°18'0 0.0
2019-Sep-18 14:00N 60°23' E 005°18'0 0.0
2019-Sep-18 13:30N 60°23' E 005°18'0 0.0
2019-Sep-18 13:00N 60°23' E 005°18'0 0.0
2019-Sep-18 12:30N 60°23' E 005°18'0 0.0
2019-Sep-18 11:54N 60°23' E 005°18'0 0.0
2019-Sep-18 11:30N 60°23' E 005°18'0 0.0
2019-Sep-18 11:00N 60°23' E 005°18'0 0.0
2019-Sep-18 10:30N 60°23' E 005°18'0 0.0
2019-Sep-18 10:00N 60°23' E 005°18'0 0.0
2019-Sep-18 09:30N 60°23' E 005°18'0 0.0
2019-Sep-18 09:00N 60°23' E 005°18'0 0.0
2019-Sep-18 08:30N 60°23' E 005°18'0 0.0
2019-Sep-18 08:00N 60°23' E 005°18'0 0.0
2019-Sep-18 07:30N 60°23' E 005°18'0 0.0
2019-Sep-18 07:00N 60°23' E 005°18'0 0.0
2019-Sep-18 06:30N 60°23' E 005°18'0 0.0
2019-Sep-18 06:00N 60°23' E 005°18'0 0.4
2019-Sep-18 05:30N 60°24' E 005°18'3 6.0
2019-Sep-18 05:00N 60°23' E 005°12'5 9.6
2019-Sep-18 04:30N 60°25' E 005°03'4 7.9
2019-Sep-18 04:00N 60°29' E 004°59'4 8.4
2019-Sep-18 03:31N 60°33' E 004°56'510.1
2019-Sep-18 03:00N 60°37' E 004°53'5 9.7
2019-Sep-18 02:30N 60°42' E 004°49'5 9.8
2019-Sep-18 02:00N 60°46' E 004°45'5 9.8
2019-Sep-18 01:30N 60°51' E 004°41'5 9.5
2019-Sep-18 01:00N 60°56' E 004°41'510.7
2019-Sep-18 00:30N 60°60' E 004°47'510.6
2019-Sep-18 00:00N 61°03' E 004°57'510.4
2019-Sep-17 23:31N 61°06' E 005°05'510.0
2019-Sep-17 23:00N 61°05' E 005°15'510.0
2019-Sep-17 22:30N 61°04' E 005°26'510.4
2019-Sep-17 22:00N 61°06' E 005°35'510.1
2019-Sep-17 21:30N 61°08' E 005°45'5 9.9
2019-Sep-17 21:00N 61°08' E 005°55'5 9.5
2019-Sep-17 20:30N 61°08' E 006°05'5 9.5
2019-Sep-17 20:00N 61°07' E 006°15'4 9.1
2019-Sep-17 19:30N 61°06' E 006°24'5 9.2
2019-Sep-17 19:00N 61°07' E 006°33'5 9.6
2019-Sep-17 18:30N 61°11' E 006°39'510.0
2019-Sep-17 18:00N 61°10' E 006°48'714.0
2019-Sep-17 17:30N 61°05' E 006°59'715.0
2019-Sep-17 17:00N 60°58' E 007°05'510.0
2019-Sep-17 16:30N 60°54' E 007°09'2 3.9
2019-Sep-17 16:00N 60°52' E 007°07'0 0.0
2019-Sep-17 15:30N 60°52' E 007°07'0 0.0
2019-Sep-17 15:00N 60°52' E 007°07'0 0.0
2019-Sep-17 14:30N 60°52' E 007°07'0 0.0
2019-Sep-17 14:00N 60°52' E 007°07'0 0.0
2019-Sep-17 13:30N 60°52' E 007°07'0 0.0
2019-Sep-17 13:00N 60°52' E 007°07'0 0.0
2019-Sep-17 12:30N 60°52' E 007°07'0 0.0
2019-Sep-17 12:00N 60°52' E 007°07'0 0.0
2019-Sep-17 11:30N 60°52' E 007°07'0 0.0
2019-Sep-17 11:00N 60°52' E 007°07'0 0.0
2019-Sep-17 10:30N 60°52' E 007°07'0 0.0
2019-Sep-17 10:00N 60°52' E 007°07'0 0.0
2019-Sep-17 09:30N 60°52' E 007°07'0 0.0
2019-Sep-17 09:00N 60°52' E 007°07'0 0.0
2019-Sep-17 08:30N 60°52' E 007°07'0 0.0
2019-Sep-17 08:00N 60°52' E 007°07'0 0.0
2019-Sep-17 07:30N 60°52' E 007°07'0 0.0
2019-Sep-17 07:00N 60°52' E 007°07'0 0.0
2019-Sep-17 06:30N 60°52' E 007°07'0 0.0
2019-Sep-17 06:00N 60°52' E 007°07'0 0.0
2019-Sep-17 05:30N 60°52' E 007°07'0 0.4
2019-Sep-17 05:00N 60°52' E 007°08'3 5.3
2019-Sep-17 04:30N 60°54' E 007°10'510.8
2019-Sep-17 04:00N 60°59' E 007°04'714.6
2019-Sep-17 03:30N 61°06' E 006°58'918.2
2019-Sep-17 03:00N 61°11' E 006°42'714.1
2019-Sep-17 02:30N 61°07' E 006°30'918.5
2019-Sep-17 02:00N 61°08' E 006°11'1019.7
2019-Sep-17 01:30N 61°08' E 005°50'1020.3
2019-Sep-17 01:00N 61°05' E 005°31'918.4
2019-Sep-17 00:30N 61°06' E 005°12'917.5
2019-Sep-17 00:00N 61°02' E 004°56'1019.8
2019-Sep-16 23:29N 60°55' E 004°40'918.7
2019-Sep-16 23:00N 60°47' E 004°46'5 9.9
2019-Sep-16 22:30N 60°45' E 004°37'713.8
2019-Sep-16 22:00N 60°41' E 004°25'815.3
2019-Sep-16 21:30N 60°34' E 004°18'815.4
2019-Sep-16 21:00N 60°27' E 004°14'3363.3
2019-Sep-16 21:00N 60°24' E 004°12'5 9.5 280 / 301007.110.8 8.3
2019-Sep-16 20:30N 60°19' E 004°11'815.1
2019-Sep-16 20:00N 60°12' E 004°11'815.3
2019-Sep-16 19:30N 60°04' E 004°11'715.3
2019-Sep-16 19:01N 59°57' E 004°11'815.3
2019-Sep-16 18:30N 59°49' E 004°11'815.5
2019-Sep-16 18:00N 59°41' E 004°11'815.6
2019-Sep-16 17:30N 59°33' E 004°11'815.3
2019-Sep-16 17:00N 59°26' E 004°11'815.3
2019-Sep-16 16:30N 59°18' E 004°11'815.4
2019-Sep-16 16:00N 59°10' E 004°11'815.4
2019-Sep-16 15:30N 59°03' E 004°11'714.2
2019-Sep-16 15:00N 58°57' E 004°19'714.4
2019-Sep-16 14:30N 58°52' E 004°29'714.4
2019-Sep-16 14:00N 58°46' E 004°38'714.6
2019-Sep-16 13:30N 58°41' E 004°48'714.4
2019-Sep-16 13:00N 58°36' E 004°58'714.5
2019-Sep-16 12:30N 58°30' E 005°07'714.6
2019-Sep-16 12:00N 58°25' E 005°17'714.7
2019-Sep-16 11:30N 58°21' E 005°27'714.6
2019-Sep-16 11:00N 58°17' E 005°39'714.7
2019-Sep-16 10:30N 58°13' E 005°51'714.4
2019-Sep-16 10:00N 58°09' E 006°03'714.2
2019-Sep-16 09:30N 58°05' E 006°14'714.7
2019-Sep-16 09:00N 58°01' E 006°26'714.6
2019-Sep-16 08:30N 57°57' E 006°37'815.1
2019-Sep-16 08:00N 57°53' E 006°49'714.7
2019-Sep-16 07:30N 57°49' E 007°01'713.9
2019-Sep-16 07:00N 57°49' E 007°14'713.9
2019-Sep-16 06:30N 57°50' E 007°27'714.4
2019-Sep-16 06:00N 57°52' E 007°40'714.8
2019-Sep-16 05:31N 57°56' E 007°52'714.4
2019-Sep-16 05:01N 57°60' E 008°03'612.2
2019-Sep-16 04:31N 58°06' E 008°03'3 6.3
2019-Sep-16 04:00N 58°08' E 007°60'0 0.0
2019-Sep-16 03:30N 58°08' E 007°60'0 0.0
2019-Sep-16 03:00N 58°08' E 007°60'0 0.0
2019-Sep-16 02:30N 58°08' E 007°60'0 0.0
2019-Sep-16 02:00N 58°08' E 007°60'0 0.0
2019-Sep-16 01:30N 58°08' E 007°60'0 0.0
2019-Sep-16 01:00N 58°08' E 007°60'0 0.0
2019-Sep-16 00:30N 58°08' E 007°60'0 0.0
2019-Sep-16 00:00N 58°08' E 007°60'0 0.0
2019-Sep-15 23:30N 58°08' E 007°60'0 0.0
2019-Sep-15 23:00N 58°08' E 007°60'0 0.0
2019-Sep-15 22:30N 58°08' E 007°60'0 0.0
2019-Sep-15 22:00N 58°08' E 007°60'0 0.0
2019-Sep-15 21:30N 58°08' E 007°60'0 0.0
2019-Sep-15 21:00N 58°08' E 007°60'0 0.0
2019-Sep-15 20:30N 58°08' E 007°60'0 0.0
2019-Sep-15 20:00N 58°08' E 007°60'0 0.0
2019-Sep-15 19:30N 58°08' E 007°60'0 0.0
2019-Sep-15 19:00N 58°08' E 007°60'0 0.0
2019-Sep-15 18:30N 58°08' E 007°60'0 0.0
2019-Sep-15 18:00N 58°08' E 007°60'0 0.0
2019-Sep-15 17:30N 58°08' E 007°60'0 0.0
2019-Sep-15 17:00N 58°08' E 007°60'0 0.0
2019-Sep-15 16:30N 58°08' E 007°60'0 0.0
2019-Sep-15 16:00N 58°08' E 007°60'0 0.0
2019-Sep-15 15:30N 58°08' E 007°60'0 0.0
2019-Sep-15 15:00N 58°08' E 007°60'0 0.0
2019-Sep-15 14:30N 58°08' E 007°60'0 0.0
2019-Sep-15 14:00N 58°08' E 007°60'0 0.0
2019-Sep-15 13:30N 58°08' E 007°60'0 0.0
2019-Sep-15 13:00N 58°08' E 007°60'0 0.0
2019-Sep-15 12:30N 58°08' E 007°60'0 0.0
2019-Sep-15 12:00N 58°08' E 007°60'0 0.0
2019-Sep-15 11:30N 58°08' E 007°60'0 0.0
2019-Sep-15 11:00N 58°08' E 007°60'0 0.0
2019-Sep-15 10:30N 58°08' E 007°60'0 0.0
2019-Sep-15 10:00N 58°08' E 007°60'0 0.0
2019-Sep-15 09:30N 58°08' E 007°60'0 0.0
2019-Sep-15 09:00N 58°08' E 007°60'0 0.0
2019-Sep-15 08:30N 58°08' E 007°60'0 0.0
2019-Sep-15 08:00N 58°08' E 007°60'0 0.0
2019-Sep-15 07:30N 58°08' E 007°60'0 0.0
2019-Sep-15 07:00N 58°08' E 007°60'0 0.0
2019-Sep-15 06:30N 58°08' E 007°60'0 0.2
2019-Sep-15 06:00N 58°08' E 007°59'5 9.1
2019-Sep-15 05:31N 58°05' E 008°04'612.2
2019-Sep-15 05:00N 57°60' E 008°11'714.2
2019-Sep-15 04:30N 57°53' E 008°13'917.0
2019-Sep-15 04:00N 57°45' E 008°07'816.9
2019-Sep-15 03:30N 57°37' E 007°59'917.3
2019-Sep-15 03:00N 57°30' E 007°49'917.9
2019-Sep-15 02:29N 57°23' E 007°39'917.8
2019-Sep-15 02:00N 57°16' E 007°30'917.8
2019-Sep-15 01:30N 57°09' E 007°20'917.7
2019-Sep-15 00:59N 57°01' E 007°12'2121.4
2019-Sep-15 00:00N 56°42' E 006°54'6716.8 250 / 351013.810.8 14.4 16.0
2019-Sep-14 20:00N 55°42' E 006°00'2715.3 220 / 321021.210.8 14.3
2019-Sep-14 18:12N 55°17' E 005°41'5017.1
2019-Sep-14 15:17N 54°31' E 005°04'616.9
2019-Sep-14 14:55N 54°27' E 004°56'1317.2
2019-Sep-14 14:11N 54°16' E 004°47'7716.5
2019-Sep-14 09:29N 53°12' E 003°32'1016.3
2019-Sep-14 08:53N 53°03' E 003°26'1116.0
2019-Sep-14 08:11N 52°53' E 003°19'616.1
2019-Sep-14 07:48N 52°47' E 003°14'816.2
2019-Sep-14 07:19N 52°41' E 003°08'816.4
2019-Sep-14 06:50N 52°34' E 003°02'716.7
2019-Sep-14 06:24N 52°27' E 002°56'717.1
2019-Sep-14 06:00N 52°21' E 002°51'917.4
2019-Sep-14 05:30N 52°14' E 002°44'917.5
2019-Sep-14 05:00N 52°05' E 002°41'1017.8
2019-Sep-14 04:25N 51°55' E 002°40'1117.1
2019-Sep-14 03:47N 51°45' E 002°34'617.7
2019-Sep-14 03:25N 51°39' E 002°27'717.8
2019-Sep-14 03:00N 51°34' E 002°19'918.1
2019-Sep-14 02:31N 51°27' E 002°10'918.2
2019-Sep-14 02:00N 51°21' E 001°60'918.5
2019-Sep-14 01:30N 51°14' E 001°50'919.0
2019-Sep-14 01:00N 51°06' E 001°41'1019.4
2019-Sep-14 00:30N 50°58' E 001°31'1019.7
2019-Sep-14 00:00N 50°49' E 001°25'1183.0
2019-Sep-14 00:00N 50°48' E 001°24'815.9 060 / 201033.910.8 15.2 17.6
2019-Sep-13 23:30N 50°42' E 001°17'918.3
2019-Sep-13 23:00N 50°36' E 001°06'917.7
2019-Sep-13 22:30N 50°31' E 000°55'917.9
2019-Sep-13 22:00N 50°28' E 000°41'918.2
2019-Sep-13 21:30N 50°26' E 000°27'3018.2
2019-Sep-13 19:53N 50°23' W 000°19'718.4
2019-Sep-13 19:30N 50°27' W 000°28'918.1
2019-Sep-13 19:00N 50°32' W 000°40'918.7
2019-Sep-13 18:30N 50°38' W 000°51'714.3
2019-Sep-13 18:00N 50°43' W 000°59'816.7
2019-Sep-13 17:30N 50°46' W 001°12'510.5
2019-Sep-13 17:00N 50°49' W 001°18'510.0
2019-Sep-13 16:30N 50°53' W 001°24'1 2.4
2019-Sep-13 15:54N 50°54' W 001°25'0 0.0
2019-Sep-13 15:24N 50°54' W 001°25'0 0.0
2019-Sep-13 14:57N 50°54' W 001°25'0 0.0
2019-Sep-13 14:27N 50°54' W 001°25'0 0.0
2019-Sep-13 13:51N 50°54' W 001°25'0 0.0
2019-Sep-13 13:27N 50°54' W 001°25'0 0.0
2019-Sep-13 13:00N 50°54' W 001°25'0 0.0
2019-Sep-13 12:27N 50°54' W 001°25'0 0.0
2019-Sep-13 12:00N 50°54' W 001°25'0 0.0
2019-Sep-13 11:30N 50°54' W 001°25'0 0.0
2019-Sep-13 10:57N 50°54' W 001°25'0 0.0
2019-Sep-13 10:27N 50°54' W 001°25'0 0.0
2019-Sep-13 09:57N 50°54' W 001°25'0 0.0
2019-Sep-13 09:21N 50°54' W 001°25'0 0.0
2019-Sep-13 09:00N 50°54' W 001°25'0 0.0
2019-Sep-13 08:30N 50°54' W 001°25'0 0.0
2019-Sep-13 08:00N 50°54' W 001°25'0 0.0
2019-Sep-13 07:27N 50°54' W 001°25'0 0.0
2019-Sep-13 06:57N 50°54' W 001°25'0 0.0
2019-Sep-13 06:30N 50°54' W 001°25'0 0.0
2019-Sep-13 05:57N 50°54' W 001°25'0 0.0
2019-Sep-13 05:30N 50°54' W 001°25'0 0.0
2019-Sep-13 05:00N 50°54' W 001°25'0 0.0
2019-Sep-13 04:30N 50°54' W 001°25'2 3.7
2019-Sep-13 04:00N 50°53' W 001°23'4 8.5
2019-Sep-13 03:30N 50°50' W 001°18'4 8.6
2019-Sep-13 03:00N 50°46' W 001°15'1212.2
2019-Sep-13 02:00N 50°39' W 000°59'612.6
2019-Sep-13 01:30N 50°33' W 001°02'612.9
2019-Sep-13 01:00N 50°30' W 001°11'1212.6
2019-Sep-13 00:05N 50°25' W 001°27'220.9
2019-Sep-13 00:00N 50°24' W 001°24'2315.8 270 / 151031.010.8 15.5 17.8
2019-Sep-12 22:34N 50°10' W 001°52'315.0
2019-Sep-12 22:23N 50°08' W 001°55'2415.8
2019-Sep-12 20:53N 49°56' W 002°26'616.7
2019-Sep-12 20:30N 49°54' W 002°35'816.7
2019-Sep-12 20:00N 49°52' W 002°48'816.7
2019-Sep-12 19:30N 49°48' W 002°60'917.0
2019-Sep-12 19:00N 49°43' W 003°11'816.9
2019-Sep-12 18:30N 49°39' W 003°22'916.8
2019-Sep-12 17:57N 49°34' W 003°34'1416.9
2019-Sep-12 17:07N 49°27' W 003°53'22415.9
2019-Sep-12 03:00N 46°30' W 007°18'10116.8 070 / 81030.010.8 16.2 18.1
2019-Sep-11 21:00N 45°00' W 008°24'   050 / 61030.710.8 18.5
Track history (hours):
 
Tides and Currents Weather Stations Pressure Air Temp Water Temp Dewpoint Dewpoint Depression Visibility Wind Speed Wind Dir Waves Ship Positions

Explorer Of The Seas

Operator: Royal Caribbean Cruises Ltd

Last reported at 2019-Sep-21 11:30 UTC. Time now 2019-Sep-21 11:36 UTC.
Position N 50°54' W 001°25'.

Length 311 m; draft 9.1 m.

Type: Passenger vessel. MMSI: 311316000.

Date/timePositionNaut miles runAvg speedWind from/ knotsBaromVisibWave heightAir tempDewpointWater temp
2019-Sep-21 11:30N 50°54' W 001°25'0 0.0
2019-Sep-21 10:51N 50°54' W 001°25'0 0.0
2019-Sep-21 10:27N 50°54' W 001°25'0 0.0
2019-Sep-21 10:00N 50°54' W 001°25'0 0.0
2019-Sep-21 09:06N 50°54' W 001°25'0 0.0
2019-Sep-21 08:57N 50°54' W 001°25'0 0.0
2019-Sep-21 08:24N 50°54' W 001°25'0 0.0
2019-Sep-21 07:57N 50°54' W 001°25'0 0.0
2019-Sep-21 07:30N 50°54' W 001°25'0 0.0
2019-Sep-21 06:57N 50°54' W 001°25'0 0.0
2019-Sep-21 06:30N 50°54' W 001°25'0 0.0
2019-Sep-21 06:00N 50°54' W 001°25'0 0.0
2019-Sep-21 05:24N 50°54' W 001°25'0 0.0
2019-Sep-21 05:00N 50°54' W 001°25'0 0.0
2019-Sep-21 04:30N 50°54' W 001°25'1 1.2
2019-Sep-21 04:00N 50°53' W 001°25'4 8.1
2019-Sep-21 03:31N 50°51' W 001°20'4 8.1
2019-Sep-21 03:01N 50°47' W 001°19'815.3
2019-Sep-21 02:31N 50°45' W 001°07'816.6
2019-Sep-21 02:00N 50°40' W 000°56'814.3
2019-Sep-21 01:27N 50°36' W 000°46'818.0
2019-Sep-21 01:00N 50°35' W 000°33'918.1
2019-Sep-21 00:30N 50°34' W 000°19'918.0
2019-Sep-21 00:00N 50°32' W 000°05'917.8
2019-Sep-20 23:30N 50°32' E 000°09'918.2
2019-Sep-20 23:00N 50°33' E 000°23'2418.5
2019-Sep-20 21:44N 50°47' E 000°53'2620.6
2019-Sep-20 20:30N 51°03' E 001°24'1020.9
2019-Sep-20 20:00N 51°09' E 001°37'1020.3
2019-Sep-20 19:30N 51°17' E 001°47'1019.8
2019-Sep-20 19:00N 51°26' E 001°55'1019.4
2019-Sep-20 18:30N 51°32' E 002°07'1118.8
2019-Sep-20 17:55N 51°41' E 002°19'1716.2
2019-Sep-20 16:50N 51°54' E 002°38'716.3
2019-Sep-20 16:26N 52°00' E 002°38'818.0
2019-Sep-20 15:58N 52°09' E 002°38'818.3
2019-Sep-20 15:30N 52°17' E 002°38'714.2
2019-Sep-20 15:00N 52°24' E 002°36'3264.5 100 / 181026.610.8 15.015.018.0
2019-Sep-20 14:59N 52°27' E 002°39'919.1
2019-Sep-20 14:30N 52°36' E 002°39'1019.1
2019-Sep-20 13:59N 52°46' E 002°38'1119.2
2019-Sep-20 13:24N 52°57' E 002°38'919.0
2019-Sep-20 12:57N 53°05' E 002°38'1018.8
2019-Sep-20 12:26N 53°14' E 002°44'918.7
2019-Sep-20 11:57N 53°23' E 002°49'14118.0
2019-Sep-20 04:08N 55°39' E 003°50'518.3
2019-Sep-20 03:52N 55°44' E 003°52'718.3
2019-Sep-20 03:29N 55°51' E 003°55'918.5
2019-Sep-20 03:00N 55°60' E 003°59'918.7
2019-Sep-20 02:30N 56°09' E 004°03'918.8
2019-Sep-20 02:00N 56°18' E 004°07'918.9
2019-Sep-20 01:30N 56°27' E 004°12'1018.8
2019-Sep-20 00:57N 56°37' E 004°17'1018.8
2019-Sep-20 00:26N 56°46' E 004°21'817.8
2019-Sep-20 00:00N 56°54' E 004°24'131.7 290 / 251028.0 5.4 12.3 13.1
2019-Sep-19 23:57N 56°55' E 004°25'818.7
2019-Sep-19 23:30N 57°03' E 004°29'918.6
2019-Sep-19 23:00N 57°12' E 004°34'918.5
2019-Sep-19 22:30N 57°21' E 004°38'918.6
2019-Sep-19 22:00N 57°30' E 004°43'918.7
2019-Sep-19 21:30N 57°39' E 004°47'918.6
2019-Sep-19 21:00N 57°48' E 004°52'918.9
2019-Sep-19 20:30N 57°57' E 004°56'918.8
2019-Sep-19 20:00N 58°06' E 005°01'046.6
2019-Sep-19 20:00N 58°06' E 005°00'1020.3 280 / 251026.6 2.2 11.2 13.6
2019-Sep-19 19:30N 58°15' E 005°05'918.7
2019-Sep-19 19:00N 58°24' E 005°10'918.6
2019-Sep-19 18:30N 58°34' E 005°14'1019.7
2019-Sep-19 18:00N 58°43' E 005°18'918.8
2019-Sep-19 17:30N 58°51' E 005°28'5 9.8
2019-Sep-19 17:00N 58°55' E 005°33'815.1
2019-Sep-19 16:30N 59°03' E 005°33'611.3
2019-Sep-19 16:00N 58°60' E 005°42'1 2.7
2019-Sep-19 15:29N 58°58' E 005°44'0 0.0
2019-Sep-19 14:59N 58°58' E 005°44'0 0.0
2019-Sep-19 14:29N 58°58' E 005°44'0 0.0
2019-Sep-19 13:59N 58°58' E 005°44'0 0.0
2019-Sep-19 13:29N 58°58' E 005°44'0 0.0
2019-Sep-19 12:59N 58°58' E 005°44'0 0.0
2019-Sep-19 12:29N 58°58' E 005°44'0 0.0
2019-Sep-19 11:59N 58°58' E 005°44'0 0.0
2019-Sep-19 11:26N 58°58' E 005°44'0 0.0
2019-Sep-19 10:59N 58°58' E 005°44'0 0.0
2019-Sep-19 10:29N 58°58' E 005°44'0 0.0
2019-Sep-19 09:59N 58°58' E 005°44'0 0.0
2019-Sep-19 09:29N 58°58' E 005°44'0 0.0
2019-Sep-19 08:59N 58°58' E 005°44'0 0.0
2019-Sep-19 08:29N 58°58' E 005°44'0 0.0
2019-Sep-19 07:59N 58°58' E 005°44'0 0.0
2019-Sep-19 07:29N 58°58' E 005°44'0 0.0
2019-Sep-19 06:59N 58°58' E 005°44'0 0.0
2019-Sep-19 06:29N 58°58' E 005°44'0 0.3
2019-Sep-19 06:00N 58°59' E 005°44'1 2.8
2019-Sep-19 05:30N 58°60' E 005°42'612.4
2019-Sep-19 05:00N 59°04' E 005°33'5 9.1
2019-Sep-19 04:30N 59°06' E 005°25'510.9
2019-Sep-19 04:00N 59°03' E 005°16'815.4
2019-Sep-19 03:30N 59°04' E 005°01'917.7
2019-Sep-19 03:00N 59°10' E 004°48'917.3
2019-Sep-19 02:30N 59°16' E 004°35'816.9
2019-Sep-19 02:00N 59°22' E 004°23'916.9
2019-Sep-19 01:30N 59°30' E 004°19'917.1
2019-Sep-19 01:00N 59°38' E 004°16'816.9
2019-Sep-19 00:30N 59°47' E 004°14'816.5
2019-Sep-19 00:00N 59°55' E 004°10'816.7
2019-Sep-18 23:29N 60°03' E 004°06'816.3
2019-Sep-18 23:00N 60°11' E 004°03'816.4
2019-Sep-18 22:30N 60°19' E 004°02'816.4
2019-Sep-18 22:00N 60°27' E 004°01'816.0
2019-Sep-18 21:30N 60°35' E 004°01'816.3
2019-Sep-18 21:00N 60°41' E 004°13'815.4
2019-Sep-18 20:30N 60°44' E 004°27'714.9
2019-Sep-18 20:00N 60°44' E 004°42'612.0
2019-Sep-18 19:30N 60°40' E 004°51'816.6
2019-Sep-18 19:00N 60°33' E 004°56'816.4
2019-Sep-18 18:30N 60°25' E 005°03'611.0
2019-Sep-18 18:00N 60°24' E 005°14'2 3.7
2019-Sep-18 17:27N 60°23' E 005°18'0 0.0
2019-Sep-18 16:57N 60°23' E 005°18'0 0.0
2019-Sep-18 16:30N 60°23' E 005°18'0 0.0
2019-Sep-18 16:00N 60°23' E 005°18'0 0.0
2019-Sep-18 15:30N 60°23' E 005°18'0 0.0
2019-Sep-18 15:00N 60°23' E 005°18'0 0.0
2019-Sep-18 14:30N 60°23' E 005°18'0 0.0
2019-Sep-18 14:00N 60°23' E 005°18'0 0.0
2019-Sep-18 13:30N 60°23' E 005°18'0 0.0
2019-Sep-18 13:00N 60°23' E 005°18'0 0.0
2019-Sep-18 12:30N 60°23' E 005°18'0 0.0
2019-Sep-18 11:54N 60°23' E 005°18'0 0.0
2019-Sep-18 11:30N 60°23' E 005°18'0 0.0
2019-Sep-18 11:00N 60°23' E 005°18'0 0.0
2019-Sep-18 10:30N 60°23' E 005°18'0 0.0
2019-Sep-18 10:00N 60°23' E 005°18'0 0.0
2019-Sep-18 09:30N 60°23' E 005°18'0 0.0
2019-Sep-18 09:00N 60°23' E 005°18'0 0.0
2019-Sep-18 08:30N 60°23' E 005°18'0 0.0
2019-Sep-18 08:00N 60°23' E 005°18'0 0.0
2019-Sep-18 07:30N 60°23' E 005°18'0 0.0
2019-Sep-18 07:00N 60°23' E 005°18'0 0.0
2019-Sep-18 06:30N 60°23' E 005°18'0 0.0
2019-Sep-18 06:00N 60°23' E 005°18'0 0.4
2019-Sep-18 05:30N 60°24' E 005°18'3 6.0
2019-Sep-18 05:00N 60°23' E 005°12'5 9.6
2019-Sep-18 04:30N 60°25' E 005°03'4 7.9
2019-Sep-18 04:00N 60°29' E 004°59'4 8.4
2019-Sep-18 03:31N 60°33' E 004°56'510.1
2019-Sep-18 03:00N 60°37' E 004°53'5 9.7
2019-Sep-18 02:30N 60°42' E 004°49'5 9.8
2019-Sep-18 02:00N 60°46' E 004°45'5 9.8
2019-Sep-18 01:30N 60°51' E 004°41'5 9.5
2019-Sep-18 01:00N 60°56' E 004°41'510.7
2019-Sep-18 00:30N 60°60' E 004°47'510.6
2019-Sep-18 00:00N 61°03' E 004°57'510.4
2019-Sep-17 23:31N 61°06' E 005°05'510.0
2019-Sep-17 23:00N 61°05' E 005°15'510.0
2019-Sep-17 22:30N 61°04' E 005°26'510.4
2019-Sep-17 22:00N 61°06' E 005°35'510.1
2019-Sep-17 21:30N 61°08' E 005°45'5 9.9
2019-Sep-17 21:00N 61°08' E 005°55'5 9.5
2019-Sep-17 20:30N 61°08' E 006°05'5 9.5
2019-Sep-17 20:00N 61°07' E 006°15'4 9.1
2019-Sep-17 19:30N 61°06' E 006°24'5 9.2
2019-Sep-17 19:00N 61°07' E 006°33'5 9.6
2019-Sep-17 18:30N 61°11' E 006°39'510.0
2019-Sep-17 18:00N 61°10' E 006°48'714.0
2019-Sep-17 17:30N 61°05' E 006°59'715.0
2019-Sep-17 17:00N 60°58' E 007°05'510.0
2019-Sep-17 16:30N 60°54' E 007°09'2 3.9
2019-Sep-17 16:00N 60°52' E 007°07'0 0.0
2019-Sep-17 15:30N 60°52' E 007°07'0 0.0
2019-Sep-17 15:00N 60°52' E 007°07'0 0.0
2019-Sep-17 14:30N 60°52' E 007°07'0 0.0
2019-Sep-17 14:00N 60°52' E 007°07'0 0.0
2019-Sep-17 13:30N 60°52' E 007°07'0 0.0
2019-Sep-17 13:00N 60°52' E 007°07'0 0.0
2019-Sep-17 12:30N 60°52' E 007°07'0 0.0
2019-Sep-17 12:00N 60°52' E 007°07'0 0.0
2019-Sep-17 11:30N 60°52' E 007°07'0 0.0
2019-Sep-17 11:00N 60°52' E 007°07'0 0.0
2019-Sep-17 10:30N 60°52' E 007°07'0 0.0
2019-Sep-17 10:00N 60°52' E 007°07'0 0.0
2019-Sep-17 09:30N 60°52' E 007°07'0 0.0
2019-Sep-17 09:00N 60°52' E 007°07'0 0.0
2019-Sep-17 08:30N 60°52' E 007°07'0 0.0
2019-Sep-17 08:00N 60°52' E 007°07'0 0.0
2019-Sep-17 07:30N 60°52' E 007°07'0 0.0
2019-Sep-17 07:00N 60°52' E 007°07'0 0.0
2019-Sep-17 06:30N 60°52' E 007°07'0 0.0
2019-Sep-17 06:00N 60°52' E 007°07'0 0.0
2019-Sep-17 05:30N 60°52' E 007°07'0 0.4
2019-Sep-17 05:00N 60°52' E 007°08'3 5.3
2019-Sep-17 04:30N 60°54' E 007°10'510.8
2019-Sep-17 04:00N 60°59' E 007°04'714.6
2019-Sep-17 03:30N 61°06' E 006°58'918.2
2019-Sep-17 03:00N 61°11' E 006°42'714.1
2019-Sep-17 02:30N 61°07' E 006°30'918.5
2019-Sep-17 02:00N 61°08' E 006°11'1019.7
2019-Sep-17 01:30N 61°08' E 005°50'1020.3
2019-Sep-17 01:00N 61°05' E 005°31'918.4
2019-Sep-17 00:30N 61°06' E 005°12'917.5
2019-Sep-17 00:00N 61°02' E 004°56'1019.8
2019-Sep-16 23:29N 60°55' E 004°40'918.7
2019-Sep-16 23:00N 60°47' E 004°46'5 9.9
2019-Sep-16 22:30N 60°45' E 004°37'713.8
2019-Sep-16 22:00N 60°41' E 004°25'815.3
2019-Sep-16 21:30N 60°34' E 004°18'815.4
2019-Sep-16 21:00N 60°27' E 004°14'3363.3
2019-Sep-16 21:00N 60°24' E 004°12'5 9.5 280 / 301007.110.8 8.3
2019-Sep-16 20:30N 60°19' E 004°11'815.1
2019-Sep-16 20:00N 60°12' E 004°11'815.3
2019-Sep-16 19:30N 60°04' E 004°11'715.3
2019-Sep-16 19:01N 59°57' E 004°11'815.3
2019-Sep-16 18:30N 59°49' E 004°11'815.5
2019-Sep-16 18:00N 59°41' E 004°11'815.6
2019-Sep-16 17:30N 59°33' E 004°11'815.3
2019-Sep-16 17:00N 59°26' E 004°11'815.3
2019-Sep-16 16:30N 59°18' E 004°11'815.4
2019-Sep-16 16:00N 59°10' E 004°11'815.4
2019-Sep-16 15:30N 59°03' E 004°11'714.2
2019-Sep-16 15:00N 58°57' E 004°19'714.4
2019-Sep-16 14:30N 58°52' E 004°29'714.4
2019-Sep-16 14:00N 58°46' E 004°38'714.6
2019-Sep-16 13:30N 58°41' E 004°48'714.4
2019-Sep-16 13:00N 58°36' E 004°58'714.5
2019-Sep-16 12:30N 58°30' E 005°07'714.6
2019-Sep-16 12:00N 58°25' E 005°17'714.7
2019-Sep-16 11:30N 58°21' E 005°27'714.6
2019-Sep-16 11:00N 58°17' E 005°39'714.7
2019-Sep-16 10:30N 58°13' E 005°51'714.4
2019-Sep-16 10:00N 58°09' E 006°03'714.2
2019-Sep-16 09:30N 58°05' E 006°14'714.7
2019-Sep-16 09:00N 58°01' E 006°26'714.6
2019-Sep-16 08:30N 57°57' E 006°37'815.1
2019-Sep-16 08:00N 57°53' E 006°49'714.7
2019-Sep-16 07:30N 57°49' E 007°01'713.9
2019-Sep-16 07:00N 57°49' E 007°14'713.9
2019-Sep-16 06:30N 57°50' E 007°27'714.4
2019-Sep-16 06:00N 57°52' E 007°40'714.8
2019-Sep-16 05:31N 57°56' E 007°52'714.4
2019-Sep-16 05:01N 57°60' E 008°03'612.2
2019-Sep-16 04:31N 58°06' E 008°03'3 6.3
2019-Sep-16 04:00N 58°08' E 007°60'0 0.0
2019-Sep-16 03:30N 58°08' E 007°60'0 0.0
2019-Sep-16 03:00N 58°08' E 007°60'0 0.0
2019-Sep-16 02:30N 58°08' E 007°60'0 0.0
2019-Sep-16 02:00N 58°08' E 007°60'0 0.0
2019-Sep-16 01:30N 58°08' E 007°60'0 0.0
2019-Sep-16 01:00N 58°08' E 007°60'0 0.0
2019-Sep-16 00:30N 58°08' E 007°60'0 0.0
2019-Sep-16 00:00N 58°08' E 007°60'0 0.0
2019-Sep-15 23:30N 58°08' E 007°60'0 0.0
2019-Sep-15 23:00N 58°08' E 007°60'0 0.0
2019-Sep-15 22:30N 58°08' E 007°60'0 0.0
2019-Sep-15 22:00N 58°08' E 007°60'0 0.0
2019-Sep-15 21:30N 58°08' E 007°60'0 0.0
2019-Sep-15 21:00N 58°08' E 007°60'0 0.0
2019-Sep-15 20:30N 58°08' E 007°60'0 0.0
2019-Sep-15 20:00N 58°08' E 007°60'0 0.0
2019-Sep-15 19:30N 58°08' E 007°60'0 0.0
2019-Sep-15 19:00N 58°08' E 007°60'0 0.0
2019-Sep-15 18:30N 58°08' E 007°60'0 0.0
2019-Sep-15 18:00N 58°08' E 007°60'0 0.0
2019-Sep-15 17:30N 58°08' E 007°60'0 0.0
2019-Sep-15 17:00N 58°08' E 007°60'0 0.0
2019-Sep-15 16:30N 58°08' E 007°60'0 0.0
2019-Sep-15 16:00N 58°08' E 007°60'0 0.0
2019-Sep-15 15:30N 58°08' E 007°60'0 0.0
2019-Sep-15 15:00N 58°08' E 007°60'0 0.0
2019-Sep-15 14:30N 58°08' E 007°60'0 0.0
2019-Sep-15 14:00N 58°08' E 007°60'0 0.0
2019-Sep-15 13:30N 58°08' E 007°60'0 0.0
2019-Sep-15 13:00N 58°08' E 007°60'0 0.0
2019-Sep-15 12:30N 58°08' E 007°60'0 0.0
2019-Sep-15 12:00N 58°08' E 007°60'0 0.0
2019-Sep-15 11:30N 58°08' E 007°60'0 0.0
2019-Sep-15 11:00N 58°08' E 007°60'0 0.0
2019-Sep-15 10:30N 58°08' E 007°60'0 0.0
2019-Sep-15 10:00N 58°08' E 007°60'0 0.0
2019-Sep-15 09:30N 58°08' E 007°60'0 0.0
2019-Sep-15 09:00N 58°08' E 007°60'0 0.0
2019-Sep-15 08:30N 58°08' E 007°60'0 0.0
2019-Sep-15 08:00N 58°08' E 007°60'0 0.0
2019-Sep-15 07:30N 58°08' E 007°60'0 0.0
2019-Sep-15 07:00N 58°08' E 007°60'0 0.0
2019-Sep-15 06:30N 58°08' E 007°60'0 0.2
2019-Sep-15 06:00N 58°08' E 007°59'5 9.1
2019-Sep-15 05:31N 58°05' E 008°04'612.2
2019-Sep-15 05:00N 57°60' E 008°11'714.2
2019-Sep-15 04:30N 57°53' E 008°13'917.0
2019-Sep-15 04:00N 57°45' E 008°07'816.9
2019-Sep-15 03:30N 57°37' E 007°59'917.3
2019-Sep-15 03:00N 57°30' E 007°49'917.9
2019-Sep-15 02:29N 57°23' E 007°39'917.8
2019-Sep-15 02:00N 57°16' E 007°30'917.8
2019-Sep-15 01:30N 57°09' E 007°20'917.7
2019-Sep-15 00:59N 57°01' E 007°12'2121.4
2019-Sep-15 00:00N 56°42' E 006°54'6716.8 250 / 351013.810.8 14.4 16.0
2019-Sep-14 20:00N 55°42' E 006°00'2715.3 220 / 321021.210.8 14.3
2019-Sep-14 18:12N 55°17' E 005°41'5017.1
2019-Sep-14 15:17N 54°31' E 005°04'616.9
2019-Sep-14 14:55N 54°27' E 004°56'1317.2
2019-Sep-14 14:11N 54°16' E 004°47'7716.5
2019-Sep-14 09:29N 53°12' E 003°32'1016.3
2019-Sep-14 08:53N 53°03' E 003°26'1116.0
2019-Sep-14 08:11N 52°53' E 003°19'616.1
2019-Sep-14 07:48N 52°47' E 003°14'816.2
2019-Sep-14 07:19N 52°41' E 003°08'816.4
2019-Sep-14 06:50N 52°34' E 003°02'716.7
2019-Sep-14 06:24N 52°27' E 002°56'717.1
2019-Sep-14 06:00N 52°21' E 002°51'917.4
2019-Sep-14 05:30N 52°14' E 002°44'917.5
2019-Sep-14 05:00N 52°05' E 002°41'1017.8
2019-Sep-14 04:25N 51°55' E 002°40'1117.1
2019-Sep-14 03:47N 51°45' E 002°34'617.7
2019-Sep-14 03:25N 51°39' E 002°27'717.8
2019-Sep-14 03:00N 51°34' E 002°19'918.1
2019-Sep-14 02:31N 51°27' E 002°10'918.2
2019-Sep-14 02:00N 51°21' E 001°60'918.5
2019-Sep-14 01:30N 51°14' E 001°50'919.0
2019-Sep-14 01:00N 51°06' E 001°41'1019.4
2019-Sep-14 00:30N 50°58' E 001°31'1019.7
2019-Sep-14 00:00N 50°49' E 001°25'1183.0
2019-Sep-14 00:00N 50°48' E 001°24'815.9 060 / 201033.910.8 15.2 17.6
2019-Sep-13 23:30N 50°42' E 001°17'918.3
2019-Sep-13 23:00N 50°36' E 001°06'917.7
2019-Sep-13 22:30N 50°31' E 000°55'917.9
2019-Sep-13 22:00N 50°28' E 000°41'918.2
2019-Sep-13 21:30N 50°26' E 000°27'3018.2
2019-Sep-13 19:53N 50°23' W 000°19'718.4
2019-Sep-13 19:30N 50°27' W 000°28'918.1
2019-Sep-13 19:00N 50°32' W 000°40'918.7
2019-Sep-13 18:30N 50°38' W 000°51'714.3
2019-Sep-13 18:00N 50°43' W 000°59'816.7
2019-Sep-13 17:30N 50°46' W 001°12'510.5
2019-Sep-13 17:00N 50°49' W 001°18'510.0
2019-Sep-13 16:30N 50°53' W 001°24'1 2.4
2019-Sep-13 15:54N 50°54' W 001°25'0 0.0
2019-Sep-13 15:24N 50°54' W 001°25'0 0.0
2019-Sep-13 14:57N 50°54' W 001°25'0 0.0
2019-Sep-13 14:27N 50°54' W 001°25'0 0.0
2019-Sep-13 13:51N 50°54' W 001°25'0 0.0
2019-Sep-13 13:27N 50°54' W 001°25'0 0.0
2019-Sep-13 13:00N 50°54' W 001°25'0 0.0
2019-Sep-13 12:27N 50°54' W 001°25'0 0.0
2019-Sep-13 12:00N 50°54' W 001°25'0 0.0
2019-Sep-13 11:30N 50°54' W 001°25'0 0.0
2019-Sep-13 10:57N 50°54' W 001°25'0 0.0
2019-Sep-13 10:27N 50°54' W 001°25'0 0.0
2019-Sep-13 09:57N 50°54' W 001°25'0 0.0
2019-Sep-13 09:21N 50°54' W 001°25'0 0.0
2019-Sep-13 09:00N 50°54' W 001°25'0 0.0
2019-Sep-13 08:30N 50°54' W 001°25'0 0.0
2019-Sep-13 08:00N 50°54' W 001°25'0 0.0
2019-Sep-13 07:27N 50°54' W 001°25'0 0.0
2019-Sep-13 06:57N 50°54' W 001°25'0 0.0
2019-Sep-13 06:30N 50°54' W 001°25'0 0.0
2019-Sep-13 05:57N 50°54' W 001°25'0 0.0
2019-Sep-13 05:30N 50°54' W 001°25'0 0.0
2019-Sep-13 05:00N 50°54' W 001°25'0 0.0
2019-Sep-13 04:30N 50°54' W 001°25'2 3.7
2019-Sep-13 04:00N 50°53' W 001°23'4 8.5
2019-Sep-13 03:30N 50°50' W 001°18'4 8.6
2019-Sep-13 03:00N 50°46' W 001°15'1212.2
2019-Sep-13 02:00N 50°39' W 000°59'612.6
2019-Sep-13 01:30N 50°33' W 001°02'612.9
2019-Sep-13 01:00N 50°30' W 001°11'1212.6
2019-Sep-13 00:05N 50°25' W 001°27'220.9
2019-Sep-13 00:00N 50°24' W 001°24'2315.8 270 / 151031.010.8 15.5 17.8
2019-Sep-12 22:34N 50°10' W 001°52'315.0
2019-Sep-12 22:23N 50°08' W 001°55'2415.8
2019-Sep-12 20:53N 49°56' W 002°26'616.7
2019-Sep-12 20:30N 49°54' W 002°35'816.7
2019-Sep-12 20:00N 49°52' W 002°48'816.7
2019-Sep-12 19:30N 49°48' W 002°60'917.0
2019-Sep-12 19:00N 49°43' W 003°11'816.9
2019-Sep-12 18:30N 49°39' W 003°22'916.8
2019-Sep-12 17:57N 49°34' W 003°34'1416.9
2019-Sep-12 17:07N 49°27' W 003°53'22415.9
2019-Sep-12 03:00N 46°30' W 007°18'10116.8 070 / 81030.010.8 16.2 18.1
2019-Sep-11 21:00N 45°00' W 008°24'   050 / 61030.710.8 18.5

Dump ship's entire track history